• Join FlightAware (Why Join?)
  • Login
  • US Flag 
02:07PM EDT


 

Airport Tracker/Info


-or-


 

Live Flight TrackerFlight Track Log ✈ AJT711 ✈ 13-May-2013 ✈ KMIA - MMMD / MID

Flight Track Log - Related Links

Times and Time Zones

All times are in EDT time to prevent confusion due to time zone crossing. See the AJT711 flight status page for this flight to view local times or setup timezone preferences in your user account.

Time Position Orientation Groundspeed Altitude Reporting Facility
EDT Latitude Longitude Course Direction KTS MPH feet Rate Location/Type
11:08PM 25.7981 -80.2767 89° East 144 166 1,100  Level Miami Center
11:09PM 25.7986 -80.2514 89° East 133 153 1,800 2,280 Climbing Miami Center
11:10PM 25.7789 -80.2047 115° Southeast 219 252 4,000 2,700 Climbing Miami Center
11:11PM 25.7256 -80.1617 144° Southeast 272 313 7,200 3,480 Climbing Miami Center
11:12PM 25.6761 -80.2225 228° Southwest 169 194 11,100 3,060 Climbing Miami Center
11:13PM 25.6261 -80.3089 237° Southwest 235 270 13,500 2,940 Climbing Miami Center
11:14PM 25.5694 -80.4017 236° Southwest 306 352 17,000 3,000 Climbing Miami Center
11:15PM 25.5150 -80.5014 239° Southwest 368 423 19,600 2,880 Climbing Miami Center
11:16PM 25.4581 -80.6008 238° Southwest 387 445 22,800 2,760 Climbing Miami Center
11:17PM 25.4036 -80.6933 237° Southwest 398 458 25,100 2,340 Climbing Miami Center
11:18PM 25.3444 -80.7972 238° Southwest 398 458 27,600 2,400 Climbing Miami Center
11:19PM 25.2850 -80.9011 238° Southwest 403 464 29,900 2,220 Climbing Miami Center
11:20PM 25.2214 -81.0114 237° Southwest 409 471 32,000 2,340 Climbing Miami Center
11:21PM 25.1600 -81.1172 237° Southwest 415 478 34,700 2,400 Climbing Miami Center
11:22PM 25.1006 -81.2183 237° Southwest 410 472 36,900 1,860 Climbing Miami Center
11:23PM 25.0414 -81.3194 237° Southwest 410 472 38,500 1,380 Climbing Miami Center
11:24PM 24.9817 -81.4203 237° Southwest 410 472 39,700 720 Climbing Miami Center
11:25PM 24.9222 -81.5233 238° Southwest 410 472 40,000 120 Climbing Miami Center
11:26PM 24.8622 -81.6333 239° Southwest 405 466 40,000  Level Miami Center
11:27PM 24.8025 -81.7361 237° Southwest 400 460 40,000  Level Miami Center
11:28PM 24.7364 -81.8456 236° Southwest 410 472 40,000  Level Miami Center
11:29PM 24.6769 -81.9300 232° Southwest 410 472 40,000  Level Miami Center
11:30PM 24.6172 -82.0303 237° Southwest 404 465 40,000  Level Miami Center
11:31PM 24.5553 -82.1306 236° Southwest 404 465 40,000  Level Miami Center
11:32PM 24.4972 -82.2331 238° Southwest 404 465 40,000  Level Miami Center
11:33PM 24.4331 -82.3328 235° Southwest 404 465 40,000  Level Miami Center
11:34PM 24.3661 -82.4461 237° Southwest 410 472 40,000  Level Miami Center
11:35PM 24.3058 -82.5481 237° Southwest 410 472 40,000  Level Miami Center
11:36PM 24.2394 -82.6478 234° Southwest 410 472 40,000  Level Miami Center
11:37PM 24.1892 -82.7569 243° Southwest 410 472 40,000  Level Miami Center
11:38PM 24.1389 -82.8658 243° Southwest 404 465 40,000  Level Miami Center
11:39PM 24.0844 -82.9769 242° Southwest 409 471 40,000  Level Miami Center
11:40PM 24.0339 -83.0858 243° Southwest 409 471 40,000  Level Miami Center
11:41PM 23.9833 -83.1992 244° Southwest 414 476 40,000  Level Miami Center
11:42PM 23.9286 -83.3075 241° Southwest 414 476 40,000  Level Miami Center
11:43PM 23.8781 -83.4161 243° Southwest 414 476 40,000  Level Miami Center
11:45PM 23.7833 -83.6233 243° Southwest  Level FlightAware Approximate
11:52PM 23.4156 -84.4188 243° Southwest  Level FlightAware Approximate
11:53PM 23.3627 -84.5321 243° Southwest  Level FlightAware Approximate
11:54PM 23.3098 -84.6453 243° Southwest  Level FlightAware Approximate
11:55PM 23.2568 -84.7584 243° Southwest  Level FlightAware Approximate
11:56PM 23.2037 -84.8714 243° Southwest  Level FlightAware Approximate
11:57PM 23.1505 -84.9843 243° Southwest  Level FlightAware Approximate
11:58PM 23.0972 -85.0971 243° Southwest  Level FlightAware Approximate
11:59PM 23.0439 -85.2099 243° Southwest  Level FlightAware Approximate
12:00AM 22.9905 -85.3225 243° Southwest  Level FlightAware Approximate
12:01AM 22.9370 -85.4351 243° Southwest  Level FlightAware Approximate
12:02AM 22.8834 -85.5475 243° Southwest  Level FlightAware Approximate
12:03AM 22.8298 -85.6599 243° Southwest  Level FlightAware Approximate
12:04AM 22.7760 -85.7722 243° Southwest  Level FlightAware Approximate
12:05AM 22.7222 -85.8845 243° Southwest  Level FlightAware Approximate
12:06AM 22.6683 -85.9966 243° Southwest  Level FlightAware Approximate
12:07AM 22.6170 -86.1107 244° Southwest  Level FlightAware Approximate
12:08AM 22.5659 -86.2243 244° Southwest  Level FlightAware Approximate
12:09AM 22.5147 -86.3377 244° Southwest  Level FlightAware Approximate
12:10AM 22.4632 -86.4510 244° Southwest  Level FlightAware Approximate
12:11AM 22.4113 -86.5640 243° Southwest  Level FlightAware Approximate
12:12AM 22.3587 -86.6766 243° Southwest  Level FlightAware Approximate
12:13AM 22.3056 -86.7889 242° Southwest  Level FlightAware Approximate
12:14AM 22.2502 -86.8998 242° Southwest  Level FlightAware Approximate
12:15AM 22.1947 -87.0106 242° Southwest  Level FlightAware Approximate
12:16AM 22.1423 -87.1231 244° Southwest  Level FlightAware Approximate
12:17AM 22.0906 -87.2360 244° Southwest  Level FlightAware Approximate
12:18AM 22.0389 -87.3488 244° Southwest  Level FlightAware Approximate
12:19AM 21.9869 -87.4614 243° Southwest  Level FlightAware Approximate
12:20AM 21.9341 -87.5735 243° Southwest  Level FlightAware Approximate
12:21AM 21.8813 -87.6856 243° Southwest  Level FlightAware Approximate
12:22AM 21.8334 -87.7999 242° Southwest  Level FlightAware Approximate
12:23AM 21.7802 -87.9117 243° Southwest  Level FlightAware Approximate
12:24AM 21.7278 -88.0239 243° Southwest  Level FlightAware Approximate
12:25AM 21.6729 -88.1346 240° Southwest  Level FlightAware Approximate
12:26AM 21.6152 -88.2436 240° Southwest  Level FlightAware Approximate
12:27AM 21.5575 -88.3526 240° Southwest  Level FlightAware Approximate
12:28AM 21.5019 -88.4629 242° Southwest  Level FlightAware Approximate
12:29AM 21.4482 -88.5741 244° Southwest  Level FlightAware Approximate
12:30AM 21.3971 -88.6867 244° Southwest  Level FlightAware Approximate
12:31AM 21.3459 -88.7992 244° Southwest  Level FlightAware Approximate
12:32AM 21.2938 -88.9112 239° Southwest  Level FlightAware Approximate
12:33AM 21.2341 -89.0187 239° Southwest  Level FlightAware Approximate
12:34AM 21.1800 -89.1295 244° Southwest  Level FlightAware Approximate
12:35AM 21.1283 -89.2416 244° Southwest  Level FlightAware Approximate
12:36AM 21.0778 -89.3543 245° Southwest  Level FlightAware Approximate
12:37AM 21.0254 -89.4659 242° Southwest  Level FlightAware Approximate
12:38AM 20.9648 -89.5714 247° West  Level FlightAware Approximate
12:39AM 20.9167 -89.6500 180° South  Level FlightAware Approximate
12:40AM 20.9370 -89.6577 180° South  Level Estimated
12:41AM 20.9370 -89.6577 180° South  Level Estimated
12:42AM 20.9370 -89.6577 180° South  Level Estimated
12:43AM 20.9370 -89.6577 180° South  Level Estimated
12:44AM 20.9370 -89.6577 180° South  Level Estimated
12:45AM 20.9370 -89.6577 180° South  Level Estimated
12:46AM 20.9370 -89.6577 180° South  Level Estimated
12:47AM 20.9370 -89.6577 180° South  Level Estimated
12:48AM 20.9370 -89.6577 180° South  Level Estimated
12:49AM 20.9370 -89.6577 180° South  Level Estimated
12:50AM 20.9370 -89.6577 180° South  Level Estimated
12:51AM 20.9370 -89.6577 180° South  Level Estimated
12:52AM 20.9370 -89.6577 180° South  Level Estimated
12:53AM 20.9370 -89.6577 180° South  Level Estimated
12:54AM 20.9370 -89.6577 180° South  Level Estimated
12:55AM 20.9370 -89.6577 180° South  Level Estimated
12:56AM 20.9370 -89.6577 180° South  Level Estimated
12:57AM 20.9370 -89.6577 180° South  Level Estimated
12:58AM 20.9370 -89.6577 180° South  Level Estimated
12:59AM 20.9370 -89.6577 180° South  Level Estimated
01:00AM 20.9370 -89.6577 180° South  Level Estimated